Time;durP1;ratioP1;P1;durP2;ratioP2;P2;SDS_P1;SDS_P2;PMS_P1;PMS_P2;Temp;Humidity;BMP_temperature;BMP_pressure;BME280_temperature;BME280_humidity;BME280_pressure;Samples;Min_cycle;Max_cycle;Signal;HPM_P1;HPM_P2
2023/01/16 00:01:21;;;;;;;0.63;0.57;;;4.10;99.90;;;;;;4948211;29;20443;-76
2023/01/16 00:03:47;;;;;;;1.27;1.13;;;4.50;99.90;;;;;;4949866;29;20027;-77
2023/01/16 00:06:13;;;;;;;0.35;0.20;;;4.20;99.90;;;;;;4949837;29;20430;-77
2023/01/16 00:08:40;;;;;;;2.90;0.70;;;4.40;99.90;;;;;;4948789;29;20039;-77
2023/01/16 00:11:06;;;;;;;0.50;0.50;;;;;;;;;;4949014;28;20054;-77
2023/01/16 00:13:32;;;;;;;0.20;0.20;;;3.50;99.90;;;;;;4948663;29;20255;-77
2023/01/16 00:15:57;;;;;;;1.55;0.25;;;3.80;99.90;;;;;;4947068;29;20050;-78
2023/01/16 00:18:23;;;;;;;1.45;0.50;;;;;;;;;;4945619;29;20134;-78
2023/01/16 00:20:49;;;;;;;0.20;0.20;;;;;;;;;;4945729;29;20059;-77
2023/01/16 00:23:15;;;;;;;1.05;0.50;;;3.20;99.90;;;;;;4949761;29;20062;-77
2023/01/16 00:25:44;;;;;;;4.95;0.32;;;3.10;99.90;;;;;;4950057;29;20054;-77
2023/01/16 00:28:11;;;;;;;2.20;0.50;;;2.80;99.90;;;;;;4946802;29;20453;-77
2023/01/16 00:30:37;;;;;;;0.43;0.28;;;3.50;99.90;;;;;;4947037;29;20039;-75
2023/01/16 00:33:04;;;;;;;4.40;0.43;;;2.80;99.90;;;;;;4948720;28;20031;-76
2023/01/16 00:35:30;;;;;;;0.28;0.28;;;3.10;99.90;;;;;;4948619;28;20058;-77
2023/01/16 00:37:56;;;;;;;1.55;0.30;;;3.40;99.90;;;;;;4950610;29;20559;-77
2023/01/16 00:40:22;;;;;;;0.10;0.10;;;2.70;99.90;;;;;;4946402;29;20062;-80
2023/01/16 00:42:47;;;;;;;2.30;0.25;;;3.20;99.90;;;;;;4948248;28;20075;-79
2023/01/16 00:45:13;;;;;;;0.80;0.38;;;4.30;99.90;;;;;;4947165;28;20031;-74
2023/01/16 00:47:40;;;;;;;0.15;0.15;;;2.60;99.90;;;;;;4949928;29;20035;-75
2023/01/16 00:50:06;;;;;;;0.30;0.30;;;2.50;99.90;;;;;;4951600;28;20283;-76
2023/01/16 00:52:32;;;;;;;0.20;0.20;;;2.70;99.90;;;;;;4951151;29;20210;-77
2023/01/16 00:54:57;;;;;;;0.20;0.20;;;2.90;99.90;;;;;;4951245;28;20238;-75
2023/01/16 00:57:23;;;;;;;1.02;0.28;;;3.70;99.90;;;;;;4951801;29;20032;-78
2023/01/16 00:59:49;;;;;;;1.77;0.55;;;3.20;99.90;;;;;;4952582;29;20027;-76
2023/01/16 01:02:14;;;;;;;2.75;0.50;;;3.90;99.90;;;;;;4953246;29;20231;-77
2023/01/16 01:04:40;;;;;;;1.30;0.60;;;3.80;99.90;;;;;;4952628;29;20023;-76
2023/01/16 01:07:06;;;;;;;2.20;0.70;;;4.00;99.90;;;;;;4948261;29;20039;-77
2023/01/16 01:09:32;;;;;;;0.43;0.30;;;3.60;99.90;;;;;;4950102;29;20107;-75
2023/01/16 01:11:58;;;;;;;0.43;0.25;;;3.10;99.90;;;;;;4946842;29;20043;-77
2023/01/16 01:14:24;;;;;;;0.85;0.25;;;4.10;99.90;;;;;;4948026;29;20023;-76
2023/01/16 01:16:50;;;;;;;1.08;0.50;;;3.30;99.90;;;;;;4947020;28;20045;-76
2023/01/16 01:19:16;;;;;;;0.38;0.38;;;3.20;99.90;;;;;;4947734;28;20027;-76
2023/01/16 01:21:41;;;;;;;0.40;0.40;;;2.70;99.90;;;;;;4948359;29;20408;-76
2023/01/16 01:24:08;;;;;;;2.08;0.70;;;3.20;99.90;;;;;;4947914;29;20031;-76
2023/01/16 01:26:33;;;;;;;0.93;0.93;;;4.10;99.90;;;;;;4947495;29;20031;-76
2023/01/16 01:28:59;;;;;;;2.50;1.05;;;3.60;99.90;;;;;;4948354;29;20033;-77
2023/01/16 01:31:25;;;;;;;2.70;1.33;;;4.30;99.90;;;;;;4950081;29;20038;-77
2023/01/16 01:33:50;;;;;;;0.77;0.38;;;2.70;99.90;;;;;;4951915;28;20027;-77
2023/01/16 01:36:16;;;;;;;3.72;0.88;;;2.20;99.90;;;;;;4952149;29;20506;-75
2023/01/16 01:38:41;;;;;;;0.30;0.30;;;3.70;99.90;;;;;;4951037;29;20027;-76
2023/01/16 01:41:09;;;;;;;3.00;0.40;;;3.90;99.90;;;;;;4952327;29;20078;-74
2023/01/16 01:43:55;;;;;;;1.23;0.55;;;3.20;99.90;;;;;;4951264;29;20031;-74
2023/01/16 01:46:41;;;;;;;4.47;0.88;;;2.70;99.90;;;;;;4965143;28;20031;-75
2023/01/16 01:49:22;;;;;;;0.30;0.30;;;1.90;99.90;;;;;;4951243;28;21162;-74
2023/01/16 01:51:49;;;;;;;2.53;0.52;;;3.00;99.90;;;;;;4959228;28;20039;-74
2023/01/16 01:54:22;;;;;;;0.85;0.47;;;3.20;99.90;;;;;;4948833;28;20270;-74
2023/01/16 01:56:53;;;;;;;0.50;0.50;;;1.90;99.90;;;;;;4946816;28;20515;-75
2023/01/16 01:59:30;;;;;;;0.25;0.25;;;1.70;99.90;;;;;;4949931;29;20031;-77
2023/01/16 02:01:57;;;;;;;0.65;0.47;;;1.70;99.90;;;;;;4947500;29;20086;-76
2023/01/16 02:04:30;;;;;;;0.47;0.47;;;3.20;99.90;;;;;;4949827;29;20098;-75
2023/01/16 02:06:59;;;;;;;1.52;0.40;;;2.40;99.90;;;;;;4948836;29;20035;-76
2023/01/16 02:09:25;;;;;;;0.40;0.40;;;1.60;99.90;;;;;;4949525;28;20105;-75
2023/01/16 02:12:01;;;;;;;1.85;0.40;;;1.60;99.90;;;;;;4948567;28;20039;-76
2023/01/16 02:14:30;;;;;;;0.77;0.22;;;2.40;99.90;;;;;;4950468;28;20035;-74
2023/01/16 02:20:08;;;;;;;0.20;0.20;;;2.30;99.90;;;;;;4949057;29;20030;-74
2023/01/16 02:23:12;;;;;;;2.28;0.30;;;1.20;99.90;;;;;;4950839;29;20023;-74
2023/01/16 02:26:01;;;;;;;0.22;0.22;;;0.80;99.90;;;;;;4950199;28;20027;-73
2023/01/16 02:28:47;;;;;;;;;;;0.60;99.90;;;;;;4948572;29;20046;-74
2023/01/16 02:31:21;;;;;;;1.65;0.77;;;1.80;99.90;;;;;;4947160;29;20355;-77
2023/01/16 02:34:13;;;;;;;2.40;1.05;;;0.20;99.90;;;;;;4947075;29;20039;-74
2023/01/16 02:36:54;;;;;;;0.85;0.85;;;0.10;99.90;;;;;;4946418;29;20055;-74
2023/01/16 02:39:33;;;;;;;1.45;0.40;;;0.00;99.90;;;;;;4947981;29;20035;-74
2023/01/16 02:42:18;;;;;;;0.57;0.50;;;0.60;99.90;;;;;;4948895;29;20050;-76
2023/01/16 02:44:59;;;;;;;1.48;0.30;;;-0.30;99.90;;;;;;4949128;29;20058;-74
2023/01/16 02:47:36;;;;;;;1.23;1.13;;;-0.30;99.90;;;;;;4947831;28;20039;-74
2023/01/16 02:50:26;;;;;;;0.10;0.10;;;1.20;99.90;;;;;;4946912;29;20020;-74
2023/01/16 02:52:57;;;;;;;;;;;-0.50;99.90;;;;;;4947870;28;20106;-74
2023/01/16 02:55:28;;;;;;;0.20;0.20;;;-0.40;99.90;;;;;;4947379;29;19906;-75
2023/01/16 02:57:59;;;;;;;0.90;0.30;;;-0.70;99.90;;;;;;4946304;29;20034;-74
2023/01/16 03:00:26;;;;;;;1.25;0.50;;;-0.80;99.90;;;;;;4946416;28;20019;-74
2023/01/16 03:02:52;;;;;;;0.30;0.30;;;1.80;99.90;;;;;;4947233;29;20560;-78
2023/01/16 03:05:19;;;;;;;3.67;0.40;;;-0.90;99.90;;;;;;4947066;29;20114;-76
2023/01/16 03:07:56;;;;;;;0.47;0.20;;;-0.80;99.90;;;;;;4962543;28;20047;-74
2023/01/16 03:10:25;;;;;;;2.10;0.80;;;-1.00;99.90;;;;;;4950882;29;20111;-77
2023/01/16 03:13:15;;;;;;;0.20;0.20;;;-1.00;99.90;;;;;;4951150;29;20031;-77
2023/01/16 03:16:09;;;;;;;0.38;0.30;;;-0.90;99.90;;;;;;4950836;29;20067;-77
2023/01/16 03:18:56;;;;;;;0.10;0.10;;;-1.00;99.90;;;;;;4944005;29;20167;-76
2023/01/16 03:21:38;;;;;;;0.57;0.57;;;-1.20;99.90;;;;;;4950706;29;20028;-77
2023/01/16 03:24:26;;;;;;;2.40;0.38;;;-1.10;99.90;;;;;;4952446;28;20106;-74
2023/01/16 03:27:01;;;;;;;1.30;0.50;;;-1.20;99.90;;;;;;4952911;29;20281;-78
2023/01/16 03:29:39;;;;;;;0.10;0.10;;;-1.20;99.90;;;;;;4952000;28;20055;-75
2023/01/16 03:32:15;;;;;;;0.20;0.20;;;0.20;99.90;;;;;;4951850;29;20123;-75
2023/01/16 03:34:48;;;;;;;6.15;0.52;;;-1.70;99.90;;;;;;4952526;29;20535;-75
2023/01/16 03:37:49;;;;;;;1.70;0.45;;;-1.40;99.90;;;;;;4953682;28;20388;-74
2023/01/16 03:40:24;;;;;;;0.28;0.20;;;-1.40;99.90;;;;;;4952592;29;20492;-74
2023/01/16 03:43:13;;;;;;;0.20;0.20;;;-1.40;99.90;;;;;;4952705;28;20110;-74
2023/01/16 03:45:45;;;;;;;1.95;0.20;;;-1.40;99.90;;;;;;4951403;29;20058;-74
2023/01/16 03:48:27;;;;;;;0.20;0.20;;;-1.30;99.90;;;;;;4952837;29;20114;-77
2023/01/16 03:50:58;;;;;;;0.80;0.20;;;-1.40;99.90;;;;;;4952217;29;20370;-76
2023/01/16 03:53:30;;;;;;;0.50;0.50;;;-1.40;99.90;;;;;;4950780;28;20294;-75
2023/01/16 03:56:20;;;;;;;3.67;0.32;;;-1.20;99.90;;;;;;4951438;28;20027;-74
2023/01/16 03:58:48;;;;;;;1.83;1.08;;;-1.20;99.90;;;;;;4950766;29;20073;-73
2023/01/16 04:01:44;;;;;;;0.20;0.20;;;-1.30;99.90;;;;;;4950664;29;20027;-74
2023/01/16 04:04:42;;;;;;;0.55;0.43;;;-1.30;99.90;;;;;;4950270;29;20563;-73
2023/01/16 04:07:24;;;;;;;0.13;0.13;;;-1.30;99.90;;;;;;4951048;29;20055;-73
2023/01/16 04:10:06;;;;;;;0.35;0.32;;;-1.40;99.90;;;;;;4949788;28;20488;-74
2023/01/16 04:12:43;;;;;;;2.63;0.30;;;-1.30;99.90;;;;;;4949351;28;20031;-76
2023/01/16 04:15:10;;;;;;;2.20;0.28;;;-1.40;99.90;;;;;;4950798;28;20484;-75
2023/01/16 04:17:38;;;;;;;0.28;0.28;;;-1.40;99.90;;;;;;4950076;28;20547;-74
2023/01/16 04:20:05;;;;;;;0.40;0.40;;;-1.40;99.90;;;;;;4950436;28;20496;-76
2023/01/16 04:22:31;;;;;;;0.40;0.40;;;-1.30;99.90;;;;;;4949754;29;20039;-75
2023/01/16 04:25:00;;;;;;;0.38;0.30;;;-1.10;99.90;;;;;;4950510;29;20279;-77
2023/01/16 04:27:25;;;;;;;0.13;0.13;;;-0.80;99.90;;;;;;4949956;28;20571;-77
2023/01/16 04:29:51;;;;;;;0.22;0.22;;;-0.20;99.90;;;;;;4950028;28;20127;-77
2023/01/16 04:32:17;;;;;;;1.85;0.35;;;-1.00;99.90;;;;;;4949710;29;20058;-74
2023/01/16 04:34:43;;;;;;;0.82;0.82;;;-1.10;99.90;;;;;;4949548;28;20420;-74
2023/01/16 04:37:12;;;;;;;3.83;1.10;;;1.20;99.90;;;;;;4949617;29;20031;-77
2023/01/16 04:39:37;;;;;;;0.22;0.20;;;-1.20;99.90;;;;;;4949723;29;20054;-73
2023/01/16 04:42:03;;;;;;;5.22;0.40;;;-0.90;99.90;;;;;;4950308;29;20480;-76
2023/01/16 04:44:29;;;;;;;0.20;0.20;;;-1.00;99.90;;;;;;4951590;29;20247;-73
2023/01/16 04:46:54;;;;;;;1.55;0.52;;;-1.10;99.90;;;;;;4950517;29;20039;-74
2023/01/16 04:49:20;;;;;;;0.35;0.32;;;-1.20;99.90;;;;;;4951492;29;20024;-73
2023/01/16 04:51:45;;;;;;;0.63;0.30;;;1.70;99.90;;;;;;4950615;29;20586;-72
2023/01/16 04:54:16;;;;;;;0.38;0.20;;;-1.00;99.90;;;;;;4950722;29;20055;-73
2023/01/16 04:56:42;;;;;;;0.35;0.35;;;-0.90;99.90;;;;;;4950012;28;20029;-73
2023/01/16 04:59:08;;;;;;;0.50;0.43;;;-0.60;99.90;;;;;;4950384;28;20384;-74
2023/01/16 05:01:37;;;;;;;0.10;0.10;;;-0.80;99.90;;;;;;4948257;29;20042;-74
2023/01/16 05:04:04;;;;;;;0.93;0.50;;;-0.50;99.90;;;;;;4949759;29;20514;-74
2023/01/16 05:06:31;;;;;;;0.20;0.20;;;0.20;99.90;;;;;;4946766;28;20283;-75
2023/01/16 05:08:57;;;;;;;1.25;0.30;;;-0.30;99.90;;;;;;4949681;29;20547;-74
2023/01/16 05:11:22;;;;;;;0.88;0.80;;;-0.70;99.90;;;;;;4949112;29;20037;-73
2023/01/16 05:13:49;;;;;;;0.20;0.20;;;-0.50;99.90;;;;;;4948033;29;21396;-74
2023/01/16 05:16:15;;;;;;;0.40;0.40;;;-1.70;99.90;;;;;;4949032;29;20066;-74
2023/01/16 05:18:40;;;;;;;0.10;0.10;;;-0.70;99.90;;;;;;4949321;29;20062;-74
2023/01/16 05:21:06;;;;;;;0.30;0.30;;;-0.70;99.90;;;;;;4949147;29;20023;-76
2023/01/16 05:23:37;;;;;;;0.80;0.50;;;-0.70;99.90;;;;;;4948887;29;20038;-75
2023/01/16 05:26:03;;;;;;;0.75;0.45;;;-0.60;99.90;;;;;;4948586;28;20023;-75
2023/01/16 05:28:29;;;;;;;0.20;0.20;;;-0.60;99.90;;;;;;4947896;29;20047;-74
2023/01/16 05:30:55;;;;;;;0.38;0.28;;;-0.60;99.90;;;;;;4948575;28;20046;-73
2023/01/16 05:33:21;;;;;;;0.30;0.30;;;-0.70;99.90;;;;;;4948853;29;20023;-73
2023/01/16 05:35:48;;;;;;;0.13;0.13;;;-0.70;99.90;;;;;;4949115;29;20055;-73
2023/01/16 05:38:14;;;;;;;0.20;0.20;;;-0.70;99.90;;;;;;4950102;28;20110;-73
2023/01/16 05:40:40;;;;;;;0.32;0.30;;;1.20;99.90;;;;;;4949175;28;20496;-73
2023/01/16 05:43:05;;;;;;;0.43;0.30;;;-0.50;99.90;;;;;;4950654;29;20050;-74
2023/01/16 05:45:31;;;;;;;0.60;0.60;;;0.70;99.90;;;;;;4950623;29;20039;-73
2023/01/16 05:47:57;;;;;;;0.30;0.30;;;-0.70;99.90;;;;;;4949020;29;20217;-74
2023/01/16 05:50:23;;;;;;;0.20;0.20;;;-0.20;99.90;;;;;;4949572;28;20162;-75
2023/01/16 05:52:49;;;;;;;1.27;0.30;;;-0.70;99.90;;;;;;4946785;28;20039;-73
2023/01/16 05:55:15;;;;;;;0.20;0.20;;;-0.50;99.90;;;;;;4949899;29;20031;-74
2023/01/16 05:57:41;;;;;;;0.30;0.30;;;-0.70;99.90;;;;;;4950060;28;20106;-73
2023/01/16 06:00:07;;;;;;;0.10;0.10;;;-0.80;99.90;;;;;;4950162;29;20115;-73
2023/01/16 06:02:33;;;;;;;1.25;0.85;;;-0.70;99.90;;;;;;4949627;28;20034;-74
2023/01/16 06:04:58;;;;;;;0.20;0.20;;;-0.80;99.90;;;;;;4948582;29;20027;-74
2023/01/16 06:07:24;;;;;;;0.65;0.47;;;-0.90;99.90;;;;;;4950840;29;20074;-76
2023/01/16 06:09:50;;;;;;;0.20;0.20;;;-0.70;99.90;;;;;;4951953;29;20078;-73
2023/01/16 06:12:17;;;;;;;0.10;0.10;;;-0.20;99.90;;;;;;4952519;29;20098;-73
2023/01/16 06:14:43;;;;;;;2.28;0.30;;;-0.50;99.90;;;;;;4952653;28;20472;-73
2023/01/16 06:17:10;;;;;;;0.43;0.32;;;-0.80;99.90;;;;;;4952539;28;20037;-73
2023/01/16 06:19:35;;;;;;;3.53;0.35;;;-0.60;99.90;;;;;;4952582;28;20023;-73
2023/01/16 06:22:01;;;;;;;2.05;0.28;;;-0.60;99.90;;;;;;4952330;29;20105;-73
2023/01/16 06:24:26;;;;;;;0.30;0.30;;;0.50;99.90;;;;;;4952415;29;20440;-73
2023/01/16 06:26:52;;;;;;;1.55;0.30;;;-0.30;99.90;;;;;;4952127;29;20070;-74
2023/01/16 06:29:18;;;;;;;0.30;0.30;;;1.30;99.90;;;;;;4954897;29;20147;-74
2023/01/16 06:31:43;;;;;;;0.32;0.32;;;0.20;99.90;;;;;;4955213;29;20027;-73
2023/01/16 06:34:09;;;;;;;0.55;0.52;;;0.40;99.90;;;;;;4952559;29;20082;-72
2023/01/16 06:36:35;;;;;;;0.60;0.60;;;1.20;99.90;;;;;;4953230;29;20290;-73
2023/01/16 06:39:03;;;;;;;3.00;1.25;;;0.20;99.90;;;;;;4952171;28;20027;-75
2023/01/16 06:41:28;;;;;;;1.52;0.70;;;0.10;99.90;;;;;;4952586;29;20023;-73
2023/01/16 06:43:54;;;;;;;1.70;0.90;;;2.10;99.90;;;;;;4951543;28;20534;-73
2023/01/16 06:46:19;;;;;;;0.30;0.30;;;0.10;99.90;;;;;;4952086;29;20020;-75
2023/01/16 06:48:45;;;;;;;6.70;1.05;;;0.10;99.90;;;;;;4952240;29;20039;-74
2023/01/16 06:51:11;;;;;;;1.83;1.73;;;0.80;99.90;;;;;;4952273;29;20019;-73
2023/01/16 06:53:37;;;;;;;0.43;0.43;;;0.30;99.90;;;;;;4966715;28;20023;-73
2023/01/16 06:56:03;;;;;;;0.52;0.47;;;1.30;99.90;;;;;;4952575;29;20524;-74
2023/01/16 06:58:28;;;;;;;0.93;0.70;;;0.40;99.90;;;;;;4952008;28;20027;-73
2023/01/16 07:00:55;;;;;;;0.85;0.45;;;2.50;99.90;;;;;;4952349;29;20106;-73
2023/01/16 07:03:21;;;;;;;9.43;1.38;;;0.80;99.90;;;;;;4967095;28;20027;-73
2023/01/16 07:05:46;;;;;;;0.98;0.65;;;1.10;99.90;;;;;;4967116;28;20031;-74
2023/01/16 07:08:13;;;;;;;1.13;1.00;;;1.10;99.90;;;;;;4952182;29;20035;-74
2023/01/16 07:10:39;;;;;;;1.20;1.00;;;2.20;99.90;;;;;;4951918;28;20424;-73
2023/01/16 07:13:06;;;;;;;3.75;0.60;;;2.70;99.90;;;;;;4966762;28;20070;-73
2023/01/16 07:23:57;;;;;;;4.15;1.92;;;1.30;99.90;;;;;;4951956;29;20191;-73
2023/01/16 07:26:24;;;;;;;2.17;1.38;;;2.90;99.90;;;;;;4951627;28;20095;-74
2023/01/16 07:28:52;;;;;;;2.40;1.27;;;1.60;99.90;;;;;;4950349;29;20035;-73
2023/01/16 07:31:18;;;;;;;1.50;1.50;;;2.80;99.90;;;;;;4951713;28;20055;-73
2023/01/16 07:33:43;;;;;;;5.70;4.25;;;1.60;99.90;;;;;;4969224;28;20031;-73
2023/01/16 07:36:09;;;;;;;4.40;3.35;;;1.80;99.90;;;;;;4969906;28;20130;-74
2023/01/16 07:38:35;;;;;;;4.75;3.78;;;1.60;99.90;;;;;;4954635;29;20033;-76
2023/01/16 07:41:00;;;;;;;4.03;3.17;;;1.50;99.90;;;;;;4954721;29;20484;-76
2023/01/16 07:43:26;;;;;;;5.30;1.98;;;1.50;99.90;;;;;;4971066;28;20028;-73
2023/01/16 07:45:52;;;;;;;3.95;3.28;;;2.20;99.90;;;;;;4956922;29;20404;-76
2023/01/16 07:48:26;;;;;;;23.98;8.95;;;1.80;99.90;;;;;;4953428;29;20039;-73
2023/01/16 07:50:54;;;;;;;22.67;9.80;;;2.00;99.90;;;;;;4953774;29;20035;-76
2023/01/16 07:53:22;;;;;;;7.75;3.80;;;3.00;99.90;;;;;;4951917;29;20034;-76
2023/01/16 07:55:53;;;;;;;2.65;1.98;;;2.10;99.90;;;;;;4954222;28;20027;-76
2023/01/16 07:58:19;;;;;;;14.65;6.28;;;2.50;99.90;;;;;;4953390;29;20029;-73
2023/01/16 08:00:45;;;;;;;7.43;3.78;;;3.30;99.90;;;;;;4955535;29;20045;-75
2023/01/16 08:03:12;;;;;;;1.10;0.40;;;2.40;99.90;;;;;;4953946;29;20098;-73
2023/01/16 08:05:38;;;;;;;0.10;0.10;;;4.20;99.90;;;;;;4953442;28;20034;-74
2023/01/16 08:08:04;;;;;;;0.10;0.10;;;5.00;96.00;;;;;;4951534;29;20341;-75
2023/01/16 08:10:30;;;;;;;4.07;0.32;;;5.30;92.50;;;;;;4952024;29;20024;-77
2023/01/16 08:12:56;;;;;;;0.20;0.20;;;6.30;94.30;;;;;;4952077;29;20023;-74
2023/01/16 08:15:21;;;;;;;1.15;0.10;;;6.50;87.70;;;;;;4952144;29;20280;-77
2023/01/16 08:17:47;;;;;;;0.10;0.10;;;6.40;85.70;;;;;;4956425;29;20035;-77
2023/01/16 08:20:13;;;;;;;0.10;0.10;;;6.80;90.00;;;;;;4955980;29;20054;-75
2023/01/16 08:22:46;;;;;;;0.08;0.08;;;6.70;87.00;;;;;;4953905;29;20066;-74
2023/01/16 08:25:12;;;;;;;1.88;0.20;;;6.40;88.20;;;;;;4952296;29;20366;-77
2023/01/16 08:27:38;;;;;;;0.10;0.10;;;6.50;88.20;;;;;;4953672;29;20059;-78
2023/01/16 08:30:05;;;;;;;0.10;0.10;;;6.40;87.60;;;;;;4954913;29;20058;-73
2023/01/16 08:32:31;;;;;;;0.20;0.20;;;6.40;87.60;;;;;;4954956;28;20114;-74
2023/01/16 08:34:56;;;;;;;0.10;0.10;;;6.50;87.10;;;;;;4954491;28;20122;-75
2023/01/16 08:37:22;;;;;;;0.10;0.10;;;6.60;87.10;;;;;;4955237;29;20516;-74
2023/01/16 08:39:47;;;;;;;0.10;0.10;;;6.50;89.50;;;;;;4955027;29;20031;-76
2023/01/16 08:53:10;;;;;;;0.20;0.20;;;6.50;91.20;;;;;;4952958;29;20515;-78
2023/01/16 08:55:38;;;;;;;1.27;0.20;;;6.70;92.00;;;;;;4952942;29;20024;-76
2023/01/16 08:58:07;;;;;;;0.10;0.10;;;6.50;92.50;;;;;;4950757;28;20499;-77
2023/01/16 09:00:34;;;;;;;0.10;0.10;;;6.40;93.20;;;;;;4965811;28;20050;-77
2023/01/16 09:03:01;;;;;;;0.10;0.10;;;6.40;92.90;;;;;;4965378;28;20271;-76
2023/01/16 09:05:27;;;;;;;0.10;0.10;;;6.30;93.10;;;;;;4965496;28;20290;-76
2023/01/16 09:07:53;;;;;;;0.10;0.10;;;6.30;93.70;;;;;;4964840;28;20045;-78
2023/01/16 09:10:19;;;;;;;0.10;0.10;;;6.30;93.80;;;;;;4950962;28;20020;-78
2023/01/16 09:15:29;;;;;;;0.08;0.08;;;6.20;94.30;;;;;;4951069;29;20054;-77
2023/01/16 09:17:55;;;;;;;0.13;0.10;;;6.20;94.70;;;;;;4948333;29;20500;-77
2023/01/16 09:20:21;;;;;;;0.08;0.08;;;6.20;94.80;;;;;;4950693;29;20019;-77
2023/01/16 09:22:46;;;;;;;0.10;0.10;;;5.90;95.00;;;;;;4951391;29;20023;-77
2023/01/16 09:25:12;;;;;;;0.10;0.10;;;6.20;95.40;;;;;;4949366;29;20023;-77
2023/01/16 09:27:38;;;;;;;0.00;0.00;;;6.10;95.40;;;;;;4964666;28;20138;-78
2023/01/16 09:30:04;;;;;;;0.00;0.00;;;6.20;95.10;;;;;;4950209;28;20554;-80
2023/01/16 09:32:30;;;;;;;0.00;0.00;;;6.30;95.20;;;;;;4950254;28;20039;-78
2023/01/16 09:34:56;;;;;;;0.10;0.10;;;6.30;95.40;;;;;;4951534;28;20044;-78
2023/01/16 09:37:22;;;;;;;0.10;0.10;;;6.30;95.00;;;;;;4966217;28;20129;-78
2023/01/16 09:39:48;;;;;;;0.00;0.00;;;;;;;;;;4950455;28;20484;-79
2023/01/16 09:45:28;;;;;;;0.10;0.10;;;6.50;94.70;;;;;;4950423;29;20041;-76
2023/01/16 09:48:01;;;;;;;0.10;0.10;;;6.60;95.40;;;;;;4950012;28;20031;-77
2023/01/16 09:50:54;;;;;;;0.00;0.00;;;6.60;94.60;;;;;;4949132;29;20074;-74
2023/01/16 09:59:29;;;;;;;0.00;0.00;;;6.50;94.40;;;;;;4950710;29;20125;-78
2023/01/16 10:02:05;;;;;;;0.00;0.00;;;6.60;93.80;;;;;;4964834;28;20027;-77
2023/01/16 10:04:31;;;;;;;0.00;0.00;;;6.80;93.90;;;;;;4950411;28;20031;-78
2023/01/16 10:07:39;;;;;;;0.00;0.00;;;6.80;94.30;;;;;;4949170;28;20065;-78
2023/01/16 10:10:11;;;;;;;0.10;0.10;;;6.70;93.70;;;;;;4944112;29;20039;-77
2023/01/16 10:12:39;;;;;;;0.00;0.00;;;6.80;94.70;;;;;;4950665;29;20058;-77
2023/01/16 10:15:31;;;;;;;0.10;0.10;;;6.80;94.90;;;;;;4951885;28;20023;-77
2023/01/16 10:18:23;;;;;;;0.00;0.00;;;7.00;95.80;;;;;;4952690;28;20062;-78
2023/01/16 10:21:10;;;;;;;0.00;0.00;;;6.70;93.90;;;;;;4966244;28;20532;-77
2023/01/16 10:24:13;;;;;;;0.00;0.00;;;6.80;94.40;;;;;;4953777;29;20023;-77
2023/01/16 10:27:00;;;;;;;0.10;0.10;;;6.90;94.60;;;;;;4935613;28;20039;-78
2023/01/16 10:29:45;;;;;;;0.00;0.00;;;6.60;94.20;;;;;;4952735;28;20513;-78
2023/01/16 10:32:19;;;;;;;0.08;0.08;;;7.00;94.10;;;;;;4950334;29;20434;-77
2023/01/16 10:34:44;;;;;;;0.00;0.00;;;7.00;95.00;;;;;;4948672;28;20055;-80
2023/01/16 10:37:12;;;;;;;0.00;0.00;;;6.90;94.10;;;;;;4951426;29;20027;-77
2023/01/16 10:39:37;;;;;;;0.00;0.00;;;6.90;94.70;;;;;;4950386;29;20039;-77
2023/01/16 10:50:25;;;;;;;0.00;0.00;;;7.10;94.60;;;;;;4950468;29;20039;-78
2023/01/16 10:52:51;;;;;;;1.55;0.10;;;7.10;94.30;;;;;;4949337;29;20027;-78
2023/01/16 10:55:17;;;;;;;0.10;0.10;;;7.00;94.20;;;;;;4965417;28;20034;-78
2023/01/16 10:57:59;;;;;;;0.00;0.00;;;7.20;94.70;;;;;;4951046;29;20031;-78
2023/01/16 11:00:31;;;;;;;0.10;0.10;;;7.40;95.00;;;;;;4953457;28;20042;-78
2023/01/16 11:03:21;;;;;;;0.00;0.00;;;7.20;94.50;;;;;;4950368;28;20023;-78
2023/01/16 11:05:47;;;;;;;0.10;0.10;;;7.30;94.70;;;;;;4949458;29;20503;-79
2023/01/16 11:08:15;;;;;;;0.00;0.00;;;7.10;93.90;;;;;;4950430;29;20039;-77
2023/01/16 11:10:43;;;;;;;0.00;0.00;;;7.20;94.30;;;;;;4950712;29;20055;-79
2023/01/16 11:19:22;;;;;;;0.08;0.08;;;7.20;95.70;;;;;;4948005;29;20416;-76
2023/01/16 11:21:58;;;;;;;0.88;0.10;;;7.10;95.30;;;;;;4948660;29;20502;-79
2023/01/16 11:24:32;;;;;;;0.10;0.10;;;7.30;95.10;;;;;;4948284;29;20058;-79
2023/01/16 11:26:59;;;;;;;1.27;0.10;;;7.30;95.70;;;;;;4948967;28;20031;-79
2023/01/16 11:29:30;;;;;;;0.43;0.10;;;7.30;95.30;;;;;;4948988;28;20039;-78
2023/01/16 11:32:05;;;;;;;0.00;0.00;;;7.40;95.00;;;;;;4952320;29;20035;-79
2023/01/16 11:34:33;;;;;;;3.22;0.10;;;7.50;96.10;;;;;;4952000;29;20031;-77
2023/01/16 11:37:03;;;;;;;0.10;0.10;;;7.60;95.20;;;;;;4952539;29;20031;-77
2023/01/16 11:39:31;;;;;;;0.00;0.00;;;7.60;98.10;;;;;;4950663;29;20019;-75
2023/01/16 11:41:59;;;;;;;0.00;0.00;;;;;;;;;;4953221;28;20027;-77
2023/01/16 11:47:26;;;;;;;0.35;0.28;;;7.70;96.90;;;;;;4952646;29;20069;-77
2023/01/16 11:49:53;;;;;;;0.10;0.10;;;7.70;99.90;;;;;;4952874;28;20546;-76
2023/01/16 11:52:29;;;;;;;0.10;0.10;;;7.80;97.40;;;;;;4953173;28;20098;-74
2023/01/16 11:55:00;;;;;;;0.15;0.10;;;7.70;97.10;;;;;;4952050;28;20114;-77
2023/01/16 11:57:59;;;;;;;0.00;0.00;;;7.60;97.80;;;;;;4953552;28;20038;-74
2023/01/16 12:00:34;;;;;;;0.10;0.10;;;7.60;96.70;;;;;;4952464;29;20036;-76
2023/01/16 12:03:20;;;;;;;0.10;0.10;;;7.40;97.00;;;;;;4968149;28;20274;-75
2023/01/16 12:06:05;;;;;;;0.00;0.00;;;;;;;;;;4964098;29;20147;-76
2023/01/16 12:08:55;;;;;;;0.00;0.00;;;7.60;99.90;;;;;;4963053;29;20050;-75
2023/01/16 12:11:50;;;;;;;0.00;0.00;;;7.70;97.70;;;;;;4962075;29;20291;-77
2023/01/16 12:14:43;;;;;;;0.05;0.05;;;7.90;96.90;;;;;;4963858;28;20019;-79
2023/01/16 12:17:09;;;;;;;0.10;0.10;;;;;;;;;;4960903;29;20019;-79
2023/01/16 12:19:49;;;;;;;0.00;0.00;;;8.10;99.90;;;;;;4961459;29;20456;-78
2023/01/16 12:22:26;;;;;;;0.38;0.20;;;8.20;98.80;;;;;;4962881;29;20035;-79
2023/01/16 12:25:05;;;;;;;0.70;0.10;;;7.80;98.30;;;;;;4961744;28;20027;-78
2023/01/16 12:27:38;;;;;;;0.03;0.03;;;7.70;99.90;;;;;;4960949;29;20061;-79
2023/01/16 12:30:10;;;;;;;0.10;0.10;;;;;;;;;;4962467;28;20055;-78
2023/01/16 12:33:08;;;;;;;0.10;0.10;;;;;;;;;;4961825;29;20113;-77
2023/01/16 12:35:33;;;;;;;1.50;0.13;;;;;;;;;;4947744;29;20074;-78
2023/01/16 12:38:26;;;;;;;0.10;0.10;;;;;;;;;;4961506;29;20228;-77
2023/01/16 12:44:14;;;;;;;0.25;0.20;;;;;;;;;;4962519;29;20085;-78
2023/01/16 12:46:59;;;;;;;0.10;0.10;;;;;;;;;;4961546;29;20031;-79
2023/01/16 12:49:44;;;;;;;0.10;0.10;;;;;;;;;;4961725;29;20034;-78
2023/01/16 12:52:19;;;;;;;0.10;0.10;;;;;;;;;;4962821;29;20041;-76
2023/01/16 12:54:52;;;;;;;0.10;0.10;;;;;;;;;;4962103;29;20423;-78
2023/01/16 12:57:21;;;;;;;0.00;0.00;;;;;;;;;;4962267;28;20140;-78
2023/01/16 13:00:02;;;;;;;0.10;0.10;;;;;;;;;;4961944;29;20027;-79
2023/01/16 13:02:28;;;;;;;0.00;0.00;;;;;;;;;;4962540;29;20070;-80
2023/01/16 13:04:59;;;;;;;0.10;0.10;;;;;;;;;;4956218;29;20039;-79
2023/01/16 13:07:27;;;;;;;0.00;0.00;;;;;;;;;;4948691;29;20054;-78
2023/01/16 13:13:20;;;;;;;0.10;0.10;;;;;;;;;;4950807;29;20035;-78
2023/01/16 13:15:37;;;;;;;0.10;0.10;;;;;;;;;;4952092;29;20066;-78
2023/01/16 13:18:03;;;;;;;0.35;0.10;;;;;;;;;;4950134;29;20027;-76
2023/01/16 13:20:30;;;;;;;0.00;0.00;;;;;;;;;;4947841;29;20038;-75
2023/01/16 13:23:03;;;;;;;0.10;0.10;;;;;;;;;;4949772;29;20031;-75
2023/01/16 13:25:36;;;;;;;0.10;0.10;;;;;;;;;;4952044;28;20030;-75
2023/01/16 13:28:08;;;;;;;0.00;0.00;;;;;;;;;;4949248;29;20043;-76
2023/01/16 13:30:34;;;;;;;0.10;0.05;;;;;;;;;;4950294;29;20027;-78
2023/01/16 13:33:04;;;;;;;0.32;0.00;;;;;;;;;;4951237;29;20023;-76
2023/01/16 13:35:33;;;;;;;0.00;0.00;;;;;;;;;;4950724;29;20079;-78
2023/01/16 13:38:08;;;;;;;0.10;0.10;;;;;;;;;;4951258;29;20527;-79
2023/01/16 13:40:47;;;;;;;0.10;0.10;;;;;;;;;;4953189;29;20066;-80
2023/01/16 13:46:20;;;;;;;0.10;0.10;;;;;;;;;;4933152;29;20590;-81
2023/01/16 13:48:52;;;;;;;0.00;0.00;;;;;;;;;;4934569;29;20043;-80
2023/01/16 13:51:20;;;;;;;0.15;0.15;;;;;;;;;;4933151;29;20034;-83
2023/01/16 13:53:50;;;;;;;0.22;0.22;;;;;;;;;;4931912;29;20170;-80
2023/01/16 13:56:26;;;;;;;0.30;0.10;;;;;;;;;;4931796;29;20024;-80
2023/01/16 13:58:59;;;;;;;0.10;0.10;;;;;;;;;;4931251;29;20629;-80
2023/01/16 14:01:30;;;;;;;0.03;0.03;;;;;;;;;;4930326;29;20155;-78
2023/01/16 14:04:14;;;;;;;0.38;0.20;;;;;;;;;;4932388;29;20024;-79
2023/01/16 14:10:03;;;;;;;0.10;0.10;;;;;;;;;;4932081;29;20050;-77
2023/01/16 14:12:52;;;;;;;0.47;0.10;;;;;;;;;;4930382;29;20055;-78
2023/01/16 14:18:21;;;;;;;0.10;0.10;;;;;;;;;;4931510;29;20131;-78
2023/01/16 14:20:47;;;;;;;0.10;0.10;;;;;;;;;;4932266;29;20655;-77
2023/01/16 14:26:01;;;;;;;0.30;0.10;;;;;;;;;;4931189;29;20122;-78
2023/01/16 14:28:27;;;;;;;0.30;0.10;;;;;;;;;;4930431;29;20031;-77
2023/01/16 14:30:53;;;;;;;0.20;0.20;;;;;;;;;;4929420;29;20024;-79
2023/01/16 14:33:20;;;;;;;0.10;0.10;;;;;;;;;;4929698;29;20024;-78
2023/01/16 14:35:50;;;;;;;0.10;0.10;;;;;;;;;;4930430;29;20107;-78
2023/01/16 14:38:20;;;;;;;0.20;0.20;;;;;;;;;;4930312;29;20483;-79
2023/01/16 14:55:52;;;;;;;0.10;0.10;;;;;;;;;;4950227;29;20082;-78